Time;durP1;ratioP1;P1;durP2;ratioP2;P2;SDS_P1;SDS_P2;PMS_P1;PMS_P2;Temp;Humidity;BMP_temperature;BMP_pressure;BME280_temperature;BME280_humidity;BME280_pressure;Samples;Min_cycle;Max_cycle;Signal;HPM_P1;HPM_P2
2021/03/15 00:00:47;;;;;;;13.82;1.73;;;;;;;;;;4970682;28;20089;-77
2021/03/15 00:03:15;;;;;;;8.60;1.58;;;;;;;;;;4987791;28;20088;-78
2021/03/15 00:05:56;;;;;;;12.75;1.92;;;;;;;;;;4987748;28;20434;-78
2021/03/15 00:08:22;;;;;;;9.90;1.63;;;;;;;;;;4987905;28;20141;-78
2021/03/15 00:10:50;;;;;;;20.85;1.73;;;;;;;;;;4987556;28;20534;-77
2021/03/15 00:13:18;;;;;;;12.82;1.83;;;;;;;;;;4970344;28;20078;-78
2021/03/15 00:15:45;;;;;;;9.32;2.13;;;;;;;;;;4987577;28;20361;-77
2021/03/15 00:18:12;;;;;;;19.38;2.03;;;;;;;;;;4969702;28;20141;-77
2021/03/15 00:20:39;;;;;;;12.35;1.90;;;;;;;;;;4986443;28;20061;-77
2021/03/15 00:23:06;;;;;;;7.47;1.40;;;;;;;;;;4969361;28;20814;-77
2021/03/15 00:25:32;;;;;;;19.92;2.50;;;;;;;;;;4987899;28;20553;-77
2021/03/15 00:27:59;;;;;;;12.93;2.30;;;;;;;;;;4970913;28;20073;-77
2021/03/15 00:30:26;;;;;;;13.02;2.92;;;;;;;;;;4986808;28;20132;-77
2021/03/15 00:32:53;;;;;;;15.27;2.17;;;;;;;;;;4969679;28;20136;-77
2021/03/15 00:35:21;;;;;;;15.85;2.80;;;;;;;;;;4969608;28;20423;-77
2021/03/15 00:37:48;;;;;;;22.33;2.83;;;;;;;;;;4987057;28;20073;-77
2021/03/15 00:40:17;;;;;;;28.75;3.20;;;;;;;;;;4986961;28;20124;-77
2021/03/15 00:42:44;;;;;;;21.75;3.40;;;;;;;;;;4969620;28;20137;-77
2021/03/15 00:45:11;;;;;;;24.55;3.85;;;;;;;;;;4987422;28;20893;-77
2021/03/15 00:47:38;;;;;;;15.70;3.67;;;;;;;;;;4969863;28;20487;-77
2021/03/15 00:50:26;;;;;;;24.88;4.13;;;;;;;;;;4987367;28;20683;-77
2021/03/15 00:52:53;;;;;;;17.17;3.97;;;;;;;;;;4987157;28;20577;-77
2021/03/15 00:55:21;;;;;;;14.07;3.47;;;;;;;;;;4986781;28;20636;-78
2021/03/15 00:57:47;;;;;;;17.27;4.20;;;;;;;;;;4969472;28;20046;-78
2021/03/15 01:00:16;;;;;;;16.30;4.18;;;;;;;;;;4986828;28;20093;-78
2021/03/15 01:02:43;;;;;;;23.23;3.83;;;;;;;;;;4985442;28;20057;-78
2021/03/15 01:05:10;;;;;;;20.90;4.45;;;;;;;;;;4986534;28;20634;-77
2021/03/15 01:07:37;;;;;;;23.73;4.53;;;;;;;;;;4969373;28;20054;-77
2021/03/15 01:10:09;;;;;;;21.08;4.15;;;;;;;;;;4987052;28;20479;-77
2021/03/15 01:12:36;;;;;;;20.25;4.30;;;;;;;;;;4969207;28;20137;-78
2021/03/15 01:15:05;;;;;;;21.38;4.78;;;;;;;;;;4969373;28;20117;-77
2021/03/15 01:17:32;;;;;;;13.63;3.97;;;;;;;;;;4969310;28;20133;-78
2021/03/15 01:19:59;;;;;;;18.88;5.18;;;;;;;;;;4969243;28;20535;-78
2021/03/15 01:22:28;;;;;;;17.02;4.35;;;;;;;;;;4969620;28;20129;-78
2021/03/15 01:24:54;;;;;;;19.02;3.88;;;;;;;;;;4969594;28;20073;-78
2021/03/15 01:27:21;;;;;;;17.98;4.40;;;;;;;;;;4986405;28;20134;-78
2021/03/15 01:29:48;;;;;;;21.60;4.32;;;;;;;;;;4969463;28;20088;-77
2021/03/15 01:32:15;;;;;;;24.48;3.97;;;;;;;;;;4968599;28;20094;-78
2021/03/15 01:34:42;;;;;;;15.02;4.43;;;;;;;;;;4968868;28;20081;-78
2021/03/15 01:37:08;;;;;;;14.90;4.40;;;;;;;;;;4986383;28;20534;-78
2021/03/15 01:39:35;;;;;;;18.30;3.30;;;;;;;;;;4986114;28;20497;-78
2021/03/15 01:42:02;;;;;;;9.00;2.88;;;;;;;;;;4986365;28;20787;-78
2021/03/15 01:44:29;;;;;;;19.80;3.42;;;;;;;;;;4986932;28;20146;-78
2021/03/15 01:46:56;;;;;;;12.95;2.90;;;;;;;;;;4986896;28;20050;-78
2021/03/15 01:49:23;;;;;;;5.72;2.10;;;;;;;;;;4986350;28;20121;-78
2021/03/15 01:51:50;;;;;;;15.60;3.20;;;;;;;;;;4986285;28;20117;-78
2021/03/15 01:54:18;;;;;;;9.98;3.70;;;;;;;;;;4986340;28;20134;-78
2021/03/15 01:56:45;;;;;;;15.15;2.55;;;;;;;;;;4986078;28;20125;-78
2021/03/15 01:59:15;;;;;;;12.88;3.25;;;;;;;;;;4986037;28;20652;-78
2021/03/15 02:01:43;;;;;;;12.60;2.42;;;;;;;;;;4986001;28;20085;-78
2021/03/15 02:04:10;;;;;;;11.95;2.15;;;;;;;;;;4986248;28;20054;-78
2021/03/15 02:06:36;;;;;;;17.65;1.85;;;;;;;;;;4985863;28;20668;-78
2021/03/15 02:09:04;;;;;;;12.35;2.13;;;;;;;;;;4967949;28;20066;-78
2021/03/15 02:11:40;;;;;;;6.03;1.65;;;;;;;;;;4986124;28;20088;-78
2021/03/15 02:14:23;;;;;;;9.73;1.83;;;;;;;;;;4968313;28;20144;-78
2021/03/15 02:16:57;;;;;;;9.32;1.77;;;;;;;;;;4985600;28;20081;-78
2021/03/15 02:19:27;;;;;;;13.50;1.45;;;;;;;;;;4986196;28;20139;-78
2021/03/15 02:22:10;;;;;;;7.32;1.52;;;;;;;;;;4968772;28;20054;-78
2021/03/15 02:24:49;;;;;;;18.88;1.77;;;;;;;;;;4986107;28;20134;-78
2021/03/15 02:27:35;;;;;;;13.00;1.75;;;;;;;;;;4985955;28;20562;-78
2021/03/15 02:30:01;;;;;;;;;;;;;;;;;;4986224;28;20735;-78
2021/03/15 02:32:53;;;;;;;8.55;1.67;;;;;;;;;;4986214;28;20012;-78
2021/03/15 02:35:22;;;;;;;10.02;1.65;;;;;;;;;;4986131;28;20054;-77
2021/03/15 02:37:59;;;;;;;16.67;2.55;;;;;;;;;;4968481;28;20141;-78
2021/03/15 02:40:35;;;;;;;12.35;2.22;;;;;;;;;;4985421;28;20050;-78
2021/03/15 02:43:07;;;;;;;13.60;2.00;;;;;;;;;;4969094;28;20133;-78
2021/03/15 02:45:36;;;;;;;10.82;2.00;;;;;;;;;;4972149;28;20064;-78
2021/03/15 02:48:05;;;;;;;9.00;2.03;;;;;;;;;;4989604;28;20054;-78
2021/03/15 02:50:33;;;;;;;17.45;2.72;;;;;;;;;;4971770;28;20058;-78
2021/03/15 02:53:00;;;;;;;10.70;2.20;;;;;;;;;;4971465;28;20137;-77
2021/03/15 02:55:28;;;;;;;11.88;2.47;;;;;;;;;;4971635;28;20082;-77
2021/03/15 02:57:56;;;;;;;10.63;2.40;;;;;;;;;;4971548;28;20052;-78
2021/03/15 03:00:24;;;;;;;11.73;2.10;;;;;;;;;;4988640;28;20164;-78
2021/03/15 03:02:52;;;;;;;8.95;2.65;;;;;;;;;;4971116;28;20054;-78
2021/03/15 03:05:20;;;;;;;15.57;2.95;;;;;;;;;;4989644;28;20057;-78
2021/03/15 03:07:50;;;;;;;21.23;3.65;;;;;;;;;;4989475;28;20066;-77
2021/03/15 03:10:18;;;;;;;14.55;3.47;;;;;;;;;;4971240;28;20160;-78
2021/03/15 03:12:45;;;;;;;26.17;4.32;;;;;;;;;;4988679;28;20404;-77
2021/03/15 03:15:13;;;;;;;26.65;4.05;;;;;;;;;;4988985;28;20476;-78
2021/03/15 03:17:41;;;;;;;21.13;3.72;;;;;;;;;;4987968;28;20205;-77
2021/03/15 03:20:10;;;;;;;25.55;4.47;;;;;;;;;;4970953;28;20046;-77
2021/03/15 03:22:37;;;;;;;22.15;4.28;;;;;;;;;;4971126;28;20141;-77
2021/03/15 03:25:05;;;;;;;21.05;4.63;;;;;;;;;;4988734;28;20649;-77
2021/03/15 03:27:33;;;;;;;24.10;5.00;;;;;;;;;;4991245;28;20054;-77
2021/03/15 03:30:01;;;;;;;21.50;4.60;;;;;;;;;;4991455;28;20133;-78
2021/03/15 03:32:28;;;;;;;18.13;4.30;;;;;;;;;;4991178;28;20570;-78
2021/03/15 03:34:55;;;;;;;23.58;5.88;;;;;;;;;;4991672;28;20827;-78
2021/03/15 03:37:23;;;;;;;22.33;5.43;;;;;;;;;;4972837;28;20124;-78
2021/03/15 03:39:52;;;;;;;12.90;4.75;;;;;;;;;;4990671;28;20061;-78
2021/03/15 03:42:20;;;;;;;27.45;5.05;;;;;;;;;;4991770;28;20096;-77
2021/03/15 03:44:50;;;;;;;17.77;4.70;;;;;;;;;;4990869;28;20060;-77
2021/03/15 03:47:19;;;;;;;18.77;5.53;;;;;;;;;;4974476;28;20054;-78
2021/03/15 03:49:47;;;;;;;23.05;5.25;;;;;;;;;;4973511;28;20050;-78
2021/03/15 03:52:15;;;;;;;18.30;6.40;;;;;;;;;;4991027;28;20050;-78
2021/03/15 03:54:50;;;;;;;19.25;5.88;;;;;;;;;;4975007;28;20054;-78
2021/03/15 03:57:27;;;;;;;19.67;5.38;;;;;;;;;;4973550;28;20077;-78
2021/03/15 03:59:56;;;;;;;25.90;5.95;;;;;;;;;;4990871;28;20129;-78
2021/03/15 04:02:25;;;;;;;26.98;5.78;;;;;;;;;;4990052;28;20050;-78
2021/03/15 04:04:56;;;;;;;22.75;6.10;;;;;;;;;;4991086;28;20050;-77
2021/03/15 04:07:26;;;;;;;32.08;6.10;;;;;;;;;;4990936;28;20132;-78
2021/03/15 04:09:54;;;;;;;22.30;6.40;;;;;;;;;;4990786;28;20622;-78
2021/03/15 04:12:23;;;;;;;32.05;6.82;;;;;;;;;;4990543;28;20124;-78
2021/03/15 04:14:51;;;;;;;30.70;6.88;;;;;;;;;;4972988;28;20141;-78
2021/03/15 04:17:23;;;;;;;29.08;7.32;;;;;;;;;;4972734;28;20054;-78
2021/03/15 04:19:51;;;;;;;35.15;8.23;;;;;;;;;;4973325;28;20046;-78
2021/03/15 04:22:21;;;;;;;27.38;5.90;;;;;;;;;;4972823;28;20133;-77
2021/03/15 04:24:49;;;;;;;26.80;6.75;;;;;;;;;;4990163;28;20065;-78
2021/03/15 04:27:17;;;;;;;38.03;7.40;;;;;;;;;;4973489;28;20089;-78
2021/03/15 04:29:45;;;;;;;25.10;6.13;;;;;;;;;;4972854;28;20081;-78
2021/03/15 04:32:13;;;;;;;25.45;5.72;;;;;;;;;;4972776;28;20054;-78
2021/03/15 04:34:40;;;;;;;20.48;6.53;;;;;;;;;;4990188;28;20074;-77
2021/03/15 04:37:07;;;;;;;26.70;7.03;;;;;;;;;;4988335;28;20097;-78
2021/03/15 04:39:36;;;;;;;29.23;6.70;;;;;;;;;;4989536;28;20053;-78
2021/03/15 04:42:04;;;;;;;25.60;6.45;;;;;;;;;;4972924;28;20130;-78
2021/03/15 04:44:35;;;;;;;33.92;6.75;;;;;;;;;;4990020;28;20055;-77
2021/03/15 04:47:03;;;;;;;38.22;6.90;;;;;;;;;;4989596;28;20058;-78
2021/03/15 04:49:31;;;;;;;27.13;6.78;;;;;;;;;;4973020;28;20158;-78
2021/03/15 04:51:59;;;;;;;19.63;6.88;;;;;;;;;;4971838;28;20061;-77
2021/03/15 04:54:30;;;;;;;25.23;6.50;;;;;;;;;;4972868;28;20050;-78
2021/03/15 04:56:57;;;;;;;26.67;7.28;;;;;;;;;;4989959;28;20042;-78
2021/03/15 04:59:25;;;;;;;25.85;7.90;;;;;;;;;;4972123;28;20046;-78
2021/03/15 05:01:52;;;;;;;23.73;6.47;;;;;;;;;;4971694;28;20084;-78
2021/03/15 05:04:22;;;;;;;19.45;6.70;;;;;;;;;;4971294;28;20050;-78
2021/03/15 05:06:52;;;;;;;29.70;9.13;;;;;;;;;;4971140;28;20448;-77
2021/03/15 05:09:19;;;;;;;27.40;7.38;;;;;;;;;;4969826;28;20479;-77
2021/03/15 05:11:47;;;;;;;28.48;7.07;;;;;;;;;;4970585;28;20074;-77
2021/03/15 05:14:13;;;;;;;33.15;8.38;;;;;;;;;;4987952;28;20450;-77
2021/03/15 05:16:43;;;;;;;40.80;7.97;;;;;;;;;;4988097;28;20143;-77
2021/03/15 05:19:12;;;;;;;28.10;7.13;;;;;;;;;;4971152;28;20444;-79
2021/03/15 05:21:40;;;;;;;32.92;8.27;;;;;;;;;;4971924;28;20112;-78
2021/03/15 05:24:07;;;;;;;21.83;8.00;;;;;;;;;;4989570;28;20069;-78
2021/03/15 05:26:36;;;;;;;44.92;9.50;;;;;;;;;;4972351;28;20097;-78
2021/03/15 05:29:04;;;;;;;32.25;7.97;;;;;;;;;;4971488;28;20057;-79
2021/03/15 05:31:34;;;;;;;27.25;8.65;;;;;;;;;;4970859;28;20522;-78
2021/03/15 05:34:02;;;;;;;41.00;9.45;;;;;;;;;;4989096;28;20695;-78
2021/03/15 05:36:31;;;;;;;33.17;8.65;;;;;;;;;;4971611;28;20054;-78
2021/03/15 05:38:58;;;;;;;31.60;9.05;;;;;;;;;;4970767;28;20585;-79
2021/03/15 05:41:35;;;;;;;39.70;10.38;;;;;;;;;;4971240;28;20133;-78
2021/03/15 05:47:22;;;;;;;34.40;10.27;;;;;;;;;;4949354;29;20549;-78
2021/03/15 05:49:59;;;;;;;41.00;10.63;;;;;;;;;;4965177;28;20047;-78
2021/03/15 05:52:45;;;;;;;47.03;10.73;;;;;;;;;;4950035;28;20056;-78
2021/03/15 05:55:12;;;;;;;44.90;9.65;;;;;;;;;;4965312;28;20138;-76
2021/03/15 06:01:01;;;;;;;38.65;10.43;;;;;;;;;;5065681;23;20564;-78
2021/03/15 06:03:28;;;;;;;46.30;10.05;;;;;;;;;;4986013;28;20061;-81
2021/03/15 06:06:00;;;;;;;31.27;10.70;;;;;;;;;;4985221;28;20057;-78
2021/03/15 06:08:30;;;;;;;38.72;9.93;;;;;;;;;;4985784;28;20407;-79
2021/03/15 06:10:56;;;;;;;33.97;9.30;;;;;;;;;;4986320;28;20534;-79
2021/03/15 06:13:24;;;;;;;34.92;10.48;;;;;;;;;;4985061;28;20062;-78
2021/03/15 06:15:52;;;;;;;45.42;11.18;;;;;;;;;;4988007;28;20129;-82
2021/03/15 06:18:20;;;;;;;46.30;10.90;;;;;;;;;;5053970;22;20049;-79
2021/03/15 06:20:49;;;;;;;36.17;9.45;;;;;;;;;;4993935;28;20078;-82
2021/03/15 06:23:17;;;;;;;33.88;9.52;;;;;;;;;;4994079;28;20105;-78
2021/03/15 06:25:49;;;;;;;40.00;10.55;;;;;;;;;;4993010;28;20054;-79
2021/03/15 06:28:19;;;;;;;33.17;10.73;;;;;;;;;;4992879;28;20356;-80
2021/03/15 06:30:49;;;;;;;38.78;10.73;;;;;;;;;;4993601;28;20058;-81
2021/03/15 06:33:17;;;;;;;37.53;10.85;;;;;;;;;;4992523;28;20058;-79
2021/03/15 06:35:45;;;;;;;26.45;8.60;;;;;;;;;;4992068;28;20081;-77
2021/03/15 06:38:12;;;;;;;38.72;9.30;;;;;;;;;;4990080;28;20081;-79
2021/03/15 06:40:59;;;;;;;30.92;10.13;;;;;;;;;;4990165;28;20061;-79
2021/03/15 06:43:26;;;;;;;32.17;9.25;;;;;;;;;;4991140;28;20125;-79
2021/03/15 06:45:54;;;;;;;28.15;9.00;;;;;;;;;;4990107;28;20101;-79
2021/03/15 06:48:21;;;;;;;33.38;9.43;;;;;;;;;;4990777;28;20046;-79
2021/03/15 06:50:49;;;;;;;29.65;8.43;;;;;;;;;;4990787;28;20085;-80
2021/03/15 06:53:16;;;;;;;35.38;9.15;;;;;;;;;;4991239;28;20046;-80
2021/03/15 06:55:42;;;;;;;26.10;9.48;;;;;;;;;;4991052;28;20054;-79
2021/03/15 06:58:18;;;;;;;29.63;8.45;;;;;;;;;;4990569;28;20132;-80
2021/03/15 07:00:49;;;;;;;26.52;8.23;;;;;;;;;;4989967;28;20090;-79
2021/03/15 07:03:23;;;;;;;27.52;8.52;;;;;;;;;;4990883;28;20411;-79
2021/03/15 07:05:59;;;;;;;21.80;7.72;;;;;;;;;;4990646;28;20399;-79
2021/03/15 07:08:26;;;;;;;26.13;8.13;;;;;;;;;;4992165;28;20152;-80
2021/03/15 07:10:56;;;;;;;30.52;7.22;;;;;;;;;;4990809;28;20084;-80
2021/03/15 07:13:24;;;;;;;29.27;8.00;;;;;;;;;;4988690;28;20487;-81
2021/03/15 07:15:52;;;;;;;25.15;7.95;;;;;;;;;;4988798;28;20129;-80
2021/03/15 07:18:26;;;;;;;23.63;7.15;;;;;;;;;;4988493;28;20200;-80
2021/03/15 07:20:54;;;;;;;28.50;8.05;;;;;;;;;;4987869;28;20046;-80
2021/03/15 07:23:43;;;;;;;24.58;7.35;;;;;;;;;;4990000;28;20046;-80
2021/03/15 07:26:10;;;;;;;17.27;7.05;;;;;;;;;;4988325;28;20444;-80
2021/03/15 07:28:36;;;;;;;16.15;6.80;;;;;;;;;;4989595;28;20061;-80
2021/03/15 07:31:21;;;;;;;17.42;6.40;;;;;;;;;;4988169;28;20051;-81
2021/03/15 07:34:08;;;;;;;21.75;7.00;;;;;;;;;;4989491;28;20061;-80
2021/03/15 07:36:44;;;;;;;24.60;6.88;;;;;;;;;;4989298;28;20120;-80
2021/03/15 07:39:11;;;;;;;21.83;6.50;;;;;;;;;;4988537;28;20057;-81
2021/03/15 07:41:45;;;;;;;29.63;6.97;;;;;;;;;;4987712;28;20072;-81
2021/03/15 07:44:16;;;;;;;21.45;7.30;;;;;;;;;;4987878;28;20054;-80
2021/03/15 07:46:45;;;;;;;14.95;6.30;;;;;;;;;;4987811;28;20128;-80
2021/03/15 07:49:22;;;;;;;19.73;5.55;;;;;;;;;;4989096;28;20054;-81
2021/03/15 07:51:56;;;;;;;19.58;6.22;;;;;;;;;;4988438;28;20468;-80
2021/03/15 07:54:26;;;;;;;22.40;6.38;;;;;;;;;;4988198;28;20691;-80
2021/03/15 07:57:11;;;;;;;18.80;6.15;;;;;;;;;;4989076;28;20147;-80
2021/03/15 07:59:37;;;;;;;12.00;5.60;;;;;;;;;;4987829;28;20058;-80
2021/03/15 08:02:04;;;;;;;26.67;7.60;;;;;;;;;;4989109;28;20050;-80
2021/03/15 08:04:31;;;;;;;24.52;5.78;;;;;;;;;;4988854;28;20121;-80
2021/03/15 08:06:58;;;;;;;21.23;6.53;;;;;;;;;;4988929;28;20418;-80
2021/03/15 08:09:25;;;;;;;25.98;7.65;;;;;;;;;;4988568;28;20145;-80
2021/03/15 08:12:07;;;;;;;28.35;6.82;;;;;;;;;;4988885;28;20387;-80
2021/03/15 08:14:36;;;;;;;21.73;7.50;;;;;;;;;;4987517;28;20047;-80
2021/03/15 08:17:03;;;;;;;20.05;7.05;;;;;;;;;;4987512;28;20844;-81
2021/03/15 08:19:35;;;;;;;20.38;7.22;;;;;;;;;;4988825;28;20057;-80
2021/03/15 08:22:02;;;;;;;20.35;6.78;;;;;;;;;;4987566;28;20050;-80
2021/03/15 08:24:32;;;;;;;22.95;6.70;;;;;;;;;;4986606;28;20062;-80
2021/03/15 08:27:02;;;;;;;25.58;8.30;;;;;;;;;;4988447;28;20050;-80
2021/03/15 08:29:29;;;;;;;25.52;8.40;;;;;;;;;;4986836;28;20050;-81
2021/03/15 08:31:57;;;;;;;37.78;13.07;;;;;;;;;;4986743;28;20101;-80
2021/03/15 08:34:25;;;;;;;26.25;10.40;;;;;;;;;;4987473;28;20150;-80
2021/03/15 08:36:52;;;;;;;31.92;12.25;;;;;;;;;;4986581;28;20420;-81
2021/03/15 08:39:31;;;;;;;31.83;9.43;;;;;;;;;;4986639;28;20112;-81
2021/03/15 08:42:07;;;;;;;20.80;8.40;;;;;;;;;;4986535;28;20085;-80
2021/03/15 08:44:54;;;;;;;19.88;6.22;;;;;;;;;;4988140;28;20065;-80
2021/03/15 08:47:44;;;;;;;13.00;5.63;;;;;;;;;;4987395;28;20057;-80
2021/03/15 08:50:32;;;;;;;17.15;5.82;;;;;;;;;;4988237;28;20085;-81
2021/03/15 08:53:01;;;;;;;15.13;5.47;;;;;;;;;;4986609;28;20046;-81
2021/03/15 08:55:43;;;;;;;15.30;5.47;;;;;;;;;;4986932;28;20050;-81
2021/03/15 08:58:28;;;;;;;17.95;6.55;;;;;;;;;;4986835;28;20092;-81
2021/03/15 09:00:55;;;;;;;;;;;;;;;;;;4987065;28;20116;-81
2021/03/15 09:04:00;;;;;;;17.90;5.05;;;;;;;;;;4987744;28;20400;-81
2021/03/15 09:06:33;;;;;;;14.25;5.68;;;;;;;;;;4911257;29;20578;-81
2021/03/15 09:09:03;;;;;;;16.05;5.93;;;;;;;;;;4911267;29;20055;-80
2021/03/15 09:11:36;;;;;;;13.63;5.45;;;;;;;;;;4960293;28;20062;-80
2021/03/15 09:14:20;;;;;;;15.27;5.25;;;;;;;;;;4988356;28;20411;-81
2021/03/15 09:16:48;;;;;;;18.48;5.97;;;;;;;;;;4986854;28;20066;-81
2021/03/15 09:19:19;;;;;;;17.70;5.65;;;;;;;;;;4986250;28;20121;-80
2021/03/15 09:21:55;;;;;;;14.20;5.85;;;;;;;;;;4986693;28;20050;-81
2021/03/15 09:24:40;;;;;;;22.15;5.90;;;;;;;;;;4986700;28;20050;-81
2021/03/15 09:27:27;;;;;;;10.02;5.40;;;;;;;;;;4988284;28;20085;-81
2021/03/15 09:29:59;;;;;;;14.07;6.10;;;;;;;;;;4973937;28;20046;-81
2021/03/15 09:32:30;;;;;;;17.38;5.45;;;;;;;;;;4987257;28;20043;-81
2021/03/15 09:34:59;;;;;;;14.90;5.85;;;;;;;;;;4987041;28;20054;-81
2021/03/15 09:37:26;;;;;;;16.73;5.78;;;;;;;;;;4984837;28;20109;-81
2021/03/15 09:39:57;;;;;;;12.63;5.20;;;;;;;;;;4984731;28;20046;-81
2021/03/15 09:42:24;;;;;;;16.02;5.75;;;;;;;;;;4987156;28;20053;-81
2021/03/15 09:44:51;;;;;;;14.80;6.47;;;;;;;;;;4987694;28;20046;-80
2021/03/15 09:47:25;;;;;;;14.48;5.90;;;;;;;;;;4987909;28;20120;-81
2021/03/15 09:49:52;;;;;;;22.90;7.40;;;;;;;;;;4986586;28;20451;-81
2021/03/15 09:52:20;;;;;;;22.38;6.75;;;;;;;;;;4987175;28;20051;-81
2021/03/15 09:54:57;;;;;;;13.52;5.53;;;;;;;;;;4990557;28;20517;-81
2021/03/15 09:57:25;;;;;;;13.75;5.85;;;;;;;;;;4991189;28;20073;-80
2021/03/15 10:00:05;;;;;;;13.18;5.93;;;;;;;;;;4990944;28;20050;-80
2021/03/15 10:02:32;;;;;;;18.10;6.47;;;;;;;;;;4991093;28;20384;-80
2021/03/15 10:05:00;;;;;;;15.50;6.82;;;;;;;;;;4990782;28;20074;-81
2021/03/15 10:07:27;;;;;;;23.20;6.53;;;;;;;;;;4990389;28;20070;-81
2021/03/15 10:09:54;;;;;;;21.05;6.22;;;;;;;;;;4991525;28;20534;-81
2021/03/15 10:12:22;;;;;;;22.95;9.35;;;;;;;;;;4990742;28;20062;-81
2021/03/15 10:15:02;;;;;;;19.33;6.60;;;;;;;;;;4989448;28;20054;-81
2021/03/15 10:17:29;;;;;;;19.55;6.57;;;;;;;;;;4989641;28;20441;-81
2021/03/15 10:19:56;;;;;;;12.93;5.15;;;;;;;;;;4990944;28;20049;-81
2021/03/15 10:22:24;;;;;;;13.95;5.05;;;;;;;;;;4987707;28;20050;-81
2021/03/15 10:24:52;;;;;;;13.70;5.65;;;;;;;;;;4989035;28;20108;-81
2021/03/15 10:27:19;;;;;;;13.00;5.35;;;;;;;;;;4991144;28;20054;-81
2021/03/15 10:29:51;;;;;;;15.02;5.07;;;;;;;;;;4990588;28;20144;-81
2021/03/15 10:32:22;;;;;;;14.10;5.13;;;;;;;;;;4991371;28;20112;-81
2021/03/15 10:34:53;;;;;;;12.85;4.60;;;;;;;;;;4991879;28;20057;-80
2021/03/15 10:37:21;;;;;;;13.15;5.03;;;;;;;;;;4991040;28;20491;-81
2021/03/15 10:39:51;;;;;;;10.02;4.43;;;;;;;;;;4988835;28;20046;-82
2021/03/15 10:42:19;;;;;;;15.52;4.95;;;;;;;;;;4989929;28;20043;-81
2021/03/15 10:44:47;;;;;;;13.52;5.10;;;;;;;;;;4990618;28;20355;-80
2021/03/15 10:47:15;;;;;;;11.68;4.20;;;;;;;;;;4989524;28;20046;-80
2021/03/15 10:49:43;;;;;;;12.45;5.15;;;;;;;;;;4990678;28;20641;-80
2021/03/15 10:52:25;;;;;;;11.80;4.28;;;;;;;;;;4989115;28;20050;-80
2021/03/15 10:54:52;;;;;;;8.13;4.03;;;;;;;;;;4989353;28;20093;-81
2021/03/15 10:57:20;;;;;;;9.13;4.13;;;;;;;;;;4989389;28;20101;-80
2021/03/15 10:59:48;;;;;;;8.00;3.92;;;;;;;;;;4991454;28;20059;-81
2021/03/15 11:02:28;;;;;;;15.90;4.78;;;;;;;;;;4991619;28;20060;-81
2021/03/15 11:04:56;;;;;;;9.68;3.80;;;;;;;;;;4990736;28;20081;-81
2021/03/15 11:07:30;;;;;;;9.35;3.70;;;;;;;;;;4990131;28;20096;-82
2021/03/15 11:09:58;;;;;;;8.75;3.30;;;;;;;;;;4989762;28;20058;-81
2021/03/15 11:12:51;;;;;;;13.43;4.00;;;;;;;;;;4989625;28;20145;-82
2021/03/15 11:15:19;;;;;;;10.23;3.70;;;;;;;;;;4979928;28;20081;-82
2021/03/15 11:17:58;;;;;;;11.63;4.03;;;;;;;;;;4990575;28;20395;-82
2021/03/15 11:20:35;;;;;;;15.43;3.88;;;;;;;;;;4988942;28;20392;-81
2021/03/15 11:23:02;;;;;;;13.35;4.53;;;;;;;;;;4991209;28;20169;-81
2021/03/15 11:25:30;;;;;;;7.15;3.65;;;;;;;;;;4990312;28;20078;-82
2021/03/15 11:28:03;;;;;;;10.00;4.50;;;;;;;;;;4989255;28;20596;-81
2021/03/15 11:30:31;;;;;;;6.38;3.58;;;;;;;;;;4990778;28;20868;-81
2021/03/15 11:33:01;;;;;;;7.75;3.97;;;;;;;;;;4990863;28;20069;-81
2021/03/15 11:35:29;;;;;;;10.40;4.25;;;;;;;;;;4992521;28;20184;-81
2021/03/15 11:38:00;;;;;;;13.52;4.35;;;;;;;;;;4988895;28;20050;-81
2021/03/15 11:40:39;;;;;;;12.85;4.40;;;;;;;;;;4990534;28;20104;-81
2021/03/15 11:43:06;;;;;;;16.83;5.10;;;;;;;;;;4988531;28;20131;-81
2021/03/15 11:45:33;;;;;;;10.20;4.28;;;;;;;;;;4989243;28;20075;-81
2021/03/15 11:48:01;;;;;;;7.28;3.85;;;;;;;;;;4990521;28;20450;-81
2021/03/15 11:50:29;;;;;;;15.13;4.32;;;;;;;;;;4988652;28;20518;-81
2021/03/15 11:52:57;;;;;;;12.82;4.03;;;;;;;;;;4990543;28;20058;-82
2021/03/15 11:55:24;;;;;;;14.80;3.78;;;;;;;;;;4990964;28;20050;-81
2021/03/15 11:57:51;;;;;;;8.85;3.95;;;;;;;;;;4990290;28;20145;-82
2021/03/15 12:00:18;;;;;;;8.70;3.15;;;;;;;;;;4990006;28;20138;-83
2021/03/15 12:02:46;;;;;;;11.63;3.63;;;;;;;;;;4990480;28;20046;-81
2021/03/15 12:05:14;;;;;;;15.38;3.90;;;;;;;;;;4988821;28;20066;-81
2021/03/15 12:07:41;;;;;;;13.50;3.53;;;;;;;;;;4990075;28;20459;-81
2021/03/15 12:10:13;;;;;;;8.10;3.20;;;;;;;;;;4989355;28;20054;-81
2021/03/15 12:12:40;;;;;;;8.52;3.08;;;;;;;;;;4988457;28;20462;-81
2021/03/15 12:15:25;;;;;;;11.38;3.60;;;;;;;;;;4987519;28;20050;-81
2021/03/15 12:18:02;;;;;;;6.38;3.28;;;;;;;;;;4989135;28;20081;-81
2021/03/15 12:20:31;;;;;;;6.85;3.42;;;;;;;;;;4987336;28;20494;-81
2021/03/15 12:22:58;;;;;;;16.00;3.67;;;;;;;;;;4987522;28;20083;-81
2021/03/15 12:25:27;;;;;;;10.43;2.88;;;;;;;;;;4987254;28;20077;-81
2021/03/15 12:27:54;;;;;;;10.00;3.47;;;;;;;;;;4987224;28;20108;-81
2021/03/15 12:30:21;;;;;;;7.10;2.90;;;;;;;;;;4987368;28;20710;-81
2021/03/15 12:32:49;;;;;;;13.20;3.00;;;;;;;;;;4988786;28;20059;-81
2021/03/15 12:35:16;;;;;;;11.27;3.53;;;;;;;;;;4987756;28;20073;-79
2021/03/15 12:37:44;;;;;;;15.07;3.25;;;;;;;;;;4987424;28;20108;-78
2021/03/15 12:40:11;;;;;;;5.65;2.80;;;;;;;;;;4988237;28;20124;-79
2021/03/15 12:42:38;;;;;;;10.07;2.95;;;;;;;;;;4987846;28;20121;-79
2021/03/15 12:45:07;;;;;;;15.77;3.60;;;;;;;;;;4988997;28;20122;-80
2021/03/15 12:47:33;;;;;;;13.48;2.92;;;;;;;;;;4988606;28;20050;-83
2021/03/15 12:50:02;;;;;;;8.95;2.17;;;;;;;;;;4986884;28;20050;-81
2021/03/15 12:52:29;;;;;;;5.82;0.60;;;;;;;;;;4988572;28;20507;-81
2021/03/15 12:54:56;;;;;;;5.40;0.45;;;;;;;;;;4987082;28;20097;-81
2021/03/15 12:57:23;;;;;;;1.05;0.43;;;;;;;;;;4988531;28;20050;-80
2021/03/15 12:59:53;;;;;;;3.70;0.40;;;;;;;;;;4987225;28;20046;-81
2021/03/15 13:02:22;;;;;;;1.92;0.40;;;;;;;;;;4988260;28;20606;-81
2021/03/15 13:04:49;;;;;;;5.88;0.50;;;;;;;;;;4988303;28;20073;-82
2021/03/15 13:07:15;;;;;;;1.35;0.20;;;;;;;;;;4988207;28;20145;-82
2021/03/15 13:09:42;;;;;;;4.75;0.40;;;;;;;;;;4987430;28;20190;-82
2021/03/15 13:12:09;;;;;;;3.83;0.50;;;;;;;;;;4987985;28;20104;-82
2021/03/15 13:14:43;;;;;;;1.75;0.30;;;;;;;;;;4987412;28;20065;-82
2021/03/15 13:17:10;;;;;;;1.98;0.90;;;;;;;;;;4988864;28;20050;-82
2021/03/15 13:19:37;;;;;;;3.42;0.70;;;;;;;;;;4988864;28;20062;-82
2021/03/15 13:22:05;;;;;;;1.40;0.40;;;;;;;;;;4989223;28;20128;-81
2021/03/15 13:24:34;;;;;;;1.58;0.60;;;;;;;;;;4989311;28;20525;-82
2021/03/15 13:27:01;;;;;;;4.47;1.60;;;;;;;;;;4987681;28;20082;-82
2021/03/15 13:29:28;;;;;;;4.32;1.50;;;;;;;;;;4987419;28;20565;-82
2021/03/15 13:31:55;;;;;;;5.40;2.00;;;;;;;;;;4987608;28;20050;-82
2021/03/15 13:34:22;;;;;;;4.43;1.30;;;;;;;;;;4987894;28;20499;-83
2021/03/15 13:36:49;;;;;;;5.97;1.80;;;;;;;;;;4987798;28;20054;-82
2021/03/15 13:39:16;;;;;;;3.80;0.90;;;;;;;;;;4987948;28;20267;-83
2021/03/15 13:41:43;;;;;;;3.08;0.90;;;;;;;;;;4988914;28;20082;-82
2021/03/15 13:44:10;;;;;;;1.35;0.70;;;;;;;;;;4987493;28;20073;-83
2021/03/15 13:46:41;;;;;;;2.70;0.88;;;;;;;;;;4987774;28;20090;-83
2021/03/15 13:49:09;;;;;;;3.33;1.00;;;;;;;;;;4987643;28;20577;-82
2021/03/15 13:51:36;;;;;;;2.22;0.75;;;;;;;;;;4989078;28;20112;-83
2021/03/15 13:54:05;;;;;;;7.60;1.10;;;;;;;;;;4987201;28;20061;-80
2021/03/15 13:56:32;;;;;;;6.10;1.27;;;;;;;;;;4987280;28;20138;-80
2021/03/15 13:58:59;;;;;;;6.30;1.75;;;;;;;;;;4985831;28;20486;-81
2021/03/15 14:01:25;;;;;;;7.22;1.70;;;;;;;;;;4988726;28;20078;-80
2021/03/15 14:03:52;;;;;;;4.18;1.30;;;;;;;;;;4988343;28;20042;-81
2021/03/15 14:06:22;;;;;;;8.05;1.50;;;;;;;;;;4988135;28;20546;-80
2021/03/15 14:08:49;;;;;;;5.53;1.48;;;;;;;;;;4987025;28;20058;-79
2021/03/15 14:11:16;;;;;;;8.32;1.80;;;;;;;;;;4987952;28;20062;-83
2021/03/15 14:13:43;;;;;;;4.47;1.30;;;;;;;;;;4987739;28;20054;-81
2021/03/15 14:16:09;;;;;;;5.93;1.90;;;;;;;;;;4987874;28;20105;-83
2021/03/15 14:18:36;;;;;;;9.32;1.90;;;;;;;;;;4986199;28;20046;-83
2021/03/15 14:21:04;;;;;;;9.25;1.83;;;;;;;;;;4984478;28;20090;-81
2021/03/15 14:23:31;;;;;;;9.15;2.70;;;;;;;;;;4988022;28;20121;-82
2021/03/15 14:25:58;;;;;;;10.02;2.40;;;;;;;;;;4987164;28;20117;-85
2021/03/15 14:28:25;;;;;;;7.18;1.83;;;;;;;;;;4989028;28;20058;-84
2021/03/15 14:30:53;;;;;;;12.85;2.63;;;;;;;;;;4986625;28;20643;-82
2021/03/15 14:33:25;;;;;;;8.98;2.20;;;;;;;;;;4988045;28;20054;-83
2021/03/15 14:35:52;;;;;;;12.43;2.28;;;;;;;;;;4987169;28;20057;-81
2021/03/15 14:38:19;;;;;;;16.90;3.17;;;;;;;;;;4987019;28;20133;-83
2021/03/15 14:40:45;;;;;;;19.55;2.78;;;;;;;;;;4991061;28;20050;-84
2021/03/15 14:43:12;;;;;;;13.85;2.83;;;;;;;;;;4992429;28;20047;-83
2021/03/15 14:45:39;;;;;;;16.15;2.80;;;;;;;;;;4989866;28;20511;-82
2021/03/15 14:48:06;;;;;;;7.18;3.45;;;;;;;;;;4991018;28;20112;-81
2021/03/15 14:50:34;;;;;;;16.80;2.75;;;;;;;;;;4990502;28;20043;-81
2021/03/15 14:53:00;;;;;;;22.48;3.13;;;;;;;;;;4991970;28;20112;-85
2021/03/15 14:55:27;;;;;;;11.20;2.67;;;;;;;;;;4994432;28;20074;-81